sensor_id;sensor_type;location;lat;lon;timestamp;pressure;altitude;pressure_sealevel;temperature;humidity
32761;BME280;19126;47.472;7.850;2023-01-25T00:04:30;97982.94;;;0.66;99.45
32761;BME280;19126;47.472;7.850;2023-01-25T00:06:57;97983.75;;;0.67;99.50
32761;BME280;19126;47.472;7.850;2023-01-25T00:24:59;97962.41;;;0.63;99.10
32761;BME280;19126;47.472;7.850;2023-01-25T00:27:26;97965.75;;;0.65;99.30
32761;BME280;19126;47.472;7.850;2023-01-25T00:32:40;97955.31;;;0.67;100.00
32761;BME280;19126;47.472;7.850;2023-01-25T00:35:10;97949.97;;;0.70;100.00
32761;BME280;19126;47.472;7.850;2023-01-25T00:37:39;97944.81;;;0.70;100.00
32761;BME280;19126;47.472;7.850;2023-01-25T00:40:10;97946.63;;;0.68;100.00
32761;BME280;19126;47.472;7.850;2023-01-25T00:42:38;97946.41;;;0.72;100.00
32761;BME280;19126;47.472;7.850;2023-01-25T00:45:07;97944.97;;;0.67;100.00
32761;BME280;19126;47.472;7.850;2023-01-25T00:47:34;97945.97;;;0.64;100.00
32761;BME280;19126;47.472;7.850;2023-01-25T00:50:01;97936.09;;;0.55;100.00
32761;BME280;19126;47.472;7.850;2023-01-25T00:52:28;97947.56;;;0.67;100.00
32761;BME280;19126;47.472;7.850;2023-01-25T00:54:55;97946.13;;;0.61;100.00
32761;BME280;19126;47.472;7.850;2023-01-25T00:57:24;97941.72;;;0.63;100.00
32761;BME280;19126;47.472;7.850;2023-01-25T00:59:51;97946.13;;;0.61;100.00
32761;BME280;19126;47.472;7.850;2023-01-25T01:02:18;97943.53;;;0.61;100.00
32761;BME280;19126;47.472;7.850;2023-01-25T01:04:45;97940.88;;;0.63;100.00
32761;BME280;19126;47.472;7.850;2023-01-25T01:09:47;97941.78;;;0.62;100.00
32761;BME280;19126;47.472;7.850;2023-01-25T01:12:14;97936.75;;;0.58;99.86
32761;BME280;19126;47.472;7.850;2023-01-25T01:20:21;97933.47;;;0.72;100.00
32761;BME280;19126;47.472;7.850;2023-01-25T01:22:50;97936.81;;;0.75;100.00
32761;BME280;19126;47.472;7.850;2023-01-25T01:25:19;97918.28;;;0.66;100.00
32761;BME280;19126;47.472;7.850;2023-01-25T01:27:46;97928.22;;;0.74;100.00
32761;BME280;19126;47.472;7.850;2023-01-25T01:30:14;97922.59;;;0.66;100.00
32761;BME280;19126;47.472;7.850;2023-01-25T01:32:41;97922.38;;;0.70;100.00
32761;BME280;19126;47.472;7.850;2023-01-25T01:40:21;97902.34;;;0.58;100.00
32761;BME280;19126;47.472;7.850;2023-01-25T01:42:56;97910.16;;;0.56;100.00
32761;BME280;19126;47.472;7.850;2023-01-25T01:45:52;97914.34;;;0.59;100.00
32761;BME280;19126;47.472;7.850;2023-01-25T01:48:23;97913.44;;;0.60;100.00
32761;BME280;19126;47.472;7.850;2023-01-25T01:50:57;97910.84;;;0.60;100.00
32761;BME280;19126;47.472;7.850;2023-01-25T01:53:26;97918.66;;;0.58;100.00
32761;BME280;19126;47.472;7.850;2023-01-25T01:55:57;97916.78;;;0.62;100.00
32761;BME280;19126;47.472;7.850;2023-01-25T01:58:25;97908.91;;;0.64;100.00
32761;BME280;19126;47.472;7.850;2023-01-25T02:00:52;97919.09;;;0.67;100.00
32761;BME280;19126;47.472;7.850;2023-01-25T02:03:20;97913.19;;;0.65;100.00
32761;BME280;19126;47.472;7.850;2023-01-25T02:05:55;97903.00;;;0.62;100.00
32761;BME280;19126;47.472;7.850;2023-01-25T02:08:23;97898.50;;;0.65;100.00
32761;BME280;19126;47.472;7.850;2023-01-25T02:10:52;97901.25;;;0.62;100.00
32761;BME280;19126;47.472;7.850;2023-01-25T02:13:21;97913.94;;;0.67;100.00
32761;BME280;19126;47.472;7.850;2023-01-25T02:15:51;97907.94;;;0.66;100.00
32761;BME280;19126;47.472;7.850;2023-01-25T02:18:21;97916.47;;;0.68;100.00
32761;BME280;19126;47.472;7.850;2023-01-25T02:20:53;97909.25;;;0.57;100.00
32761;BME280;19126;47.472;7.850;2023-01-25T02:23:23;97909.19;;;0.59;100.00
32761;BME280;19126;47.472;7.850;2023-01-25T02:25:53;97894.78;;;0.53;100.00
32761;BME280;19126;47.472;7.850;2023-01-25T02:28:24;97905.91;;;0.55;99.51
32761;BME280;19126;47.472;7.850;2023-01-25T02:30:53;97904.06;;;0.57;98.93
32761;BME280;19126;47.472;7.850;2023-01-25T02:33:24;97910.69;;;0.63;98.58
32761;BME280;19126;47.472;7.850;2023-01-25T02:35:54;97912.41;;;0.63;97.74
32761;BME280;19126;47.472;7.850;2023-01-25T02:38:22;97902.41;;;0.56;96.80
32761;BME280;19126;47.472;7.850;2023-01-25T02:40:55;97877.38;;;0.57;96.42
32761;BME280;19126;47.472;7.850;2023-01-25T02:43:27;97882.25;;;0.63;96.01
32761;BME280;19126;47.472;7.850;2023-01-25T02:45:57;97890.75;;;0.65;95.75
32761;BME280;19126;47.472;7.850;2023-01-25T02:48:31;97888.38;;;0.61;96.81
32761;BME280;19126;47.472;7.850;2023-01-25T02:51:00;97885.91;;;0.59;96.81
32761;BME280;19126;47.472;7.850;2023-01-25T02:53:27;97886.06;;;0.56;95.30
32761;BME280;19126;47.472;7.850;2023-01-25T02:55:58;97886.97;;;0.55;95.08
32761;BME280;19126;47.472;7.850;2023-01-25T02:58:28;97881.88;;;0.53;94.02
32761;BME280;19126;47.472;7.850;2023-01-25T03:00:58;97875.28;;;0.48;93.83
32761;BME280;19126;47.472;7.850;2023-01-25T03:03:25;97887.97;;;0.52;92.98
32761;BME280;19126;47.472;7.850;2023-01-25T03:05:52;97882.13;;;0.49;92.16
32761;BME280;19126;47.472;7.850;2023-01-25T03:08:19;97881.06;;;0.53;91.28
32761;BME280;19126;47.472;7.850;2023-01-25T03:10:47;97874.38;;;0.49;90.93
32761;BME280;19126;47.472;7.850;2023-01-25T03:13:15;97885.38;;;0.52;91.01
32761;BME280;19126;47.472;7.850;2023-01-25T03:15:43;97882.94;;;0.49;90.42
32761;BME280;19126;47.472;7.850;2023-01-25T03:18:10;97874.72;;;0.58;90.87
32761;BME280;19126;47.472;7.850;2023-01-25T03:20:40;97875.47;;;0.61;91.57
32761;BME280;19126;47.472;7.850;2023-01-25T03:25:42;97875.56;;;0.59;91.46
32761;BME280;19126;47.472;7.850;2023-01-25T03:28:10;97867.88;;;0.57;90.74
32761;BME280;19126;47.472;7.850;2023-01-25T03:30:51;97863.94;;;0.50;90.19
32761;BME280;19126;47.472;7.850;2023-01-25T03:33:21;97867.28;;;0.52;90.13
32761;BME280;19126;47.472;7.850;2023-01-25T03:38:24;97862.63;;;0.59;89.19
32761;BME280;19126;47.472;7.850;2023-01-25T03:40:59;97849.00;;;0.55;90.71
32761;BME280;19126;47.472;7.850;2023-01-25T03:48:45;97859.19;;;0.58;90.84
32761;BME280;19126;47.472;7.850;2023-01-25T04:17:33;97840.75;;;0.49;86.97
32761;BME280;19126;47.472;7.850;2023-01-25T04:20:05;97837.16;;;0.51;84.44
32761;BME280;19126;47.472;7.850;2023-01-25T04:22:47;97827.25;;;0.43;84.07
32761;BME280;19126;47.472;7.850;2023-01-25T04:25:25;97830.47;;;0.47;83.44
32761;BME280;19126;47.472;7.850;2023-01-25T04:27:52;97820.31;;;0.44;83.21
32761;BME280;19126;47.472;7.850;2023-01-25T04:30:34;97819.06;;;0.51;83.04
32761;BME280;19126;47.472;7.850;2023-01-25T04:35:39;97822.41;;;0.53;83.00
32761;BME280;19126;47.472;7.850;2023-01-25T04:38:08;97824.22;;;0.51;83.32
32761;BME280;19126;47.472;7.850;2023-01-25T04:40:40;97819.16;;;0.50;83.56
32761;BME280;19126;47.472;7.850;2023-01-25T04:43:07;97826.59;;;0.56;82.99
32761;BME280;19126;47.472;7.850;2023-01-25T04:45:37;97806.31;;;0.48;83.65
32761;BME280;19126;47.472;7.850;2023-01-25T04:48:06;97808.72;;;0.51;82.66
32761;BME280;19126;47.472;7.850;2023-01-25T04:50:35;97802.16;;;0.46;82.16
32761;BME280;19126;47.472;7.850;2023-01-25T04:53:05;97813.66;;;0.56;81.99
32761;BME280;19126;47.472;7.850;2023-01-25T05:50:58;97820.72;;;0.52;84.46
32761;BME280;19126;47.472;7.850;2023-01-25T09:23:03;97731.81;;;0.71;99.74
32761;BME280;19126;47.472;7.850;2023-01-25T09:25:35;97732.84;;;0.68;100.00
32761;BME280;19126;47.472;7.850;2023-01-25T09:28:04;97737.91;;;0.70;100.00
32761;BME280;19126;47.472;7.850;2023-01-25T09:30:39;97738.84;;;0.69;98.42
32761;BME280;19126;47.472;7.850;2023-01-25T09:33:10;97728.59;;;0.67;97.47
32761;BME280;19126;47.472;7.850;2023-01-25T09:35:46;97727.56;;;0.70;96.90
32761;BME280;19126;47.472;7.850;2023-01-25T09:38:15;97728.59;;;0.67;96.22
32761;BME280;19126;47.472;7.850;2023-01-25T09:40:48;97728.31;;;0.72;95.19
32761;BME280;19126;47.472;7.850;2023-01-25T09:43:27;97738.59;;;0.73;94.80
32761;BME280;19126;47.472;7.850;2023-01-25T09:46:00;97736.91;;;0.72;94.89
32761;BME280;19126;47.472;7.850;2023-01-25T09:48:36;97728.59;;;0.67;94.35
32761;BME280;19126;47.472;7.850;2023-01-25T09:51:15;97724.91;;;0.71;93.64
32761;BME280;19126;47.472;7.850;2023-01-25T09:53:48;97728.41;;;0.70;93.38
32761;BME280;19126;47.472;7.850;2023-01-25T09:56:28;97735.31;;;0.70;93.56
32761;BME280;19126;47.472;7.850;2023-01-25T09:59:03;97725.31;;;0.64;93.40
32761;BME280;19126;47.472;7.850;2023-01-25T10:01:48;97718.13;;;0.69;92.54
32761;BME280;19126;47.472;7.850;2023-01-25T10:08:24;97711.63;;;0.78;93.88
32761;BME280;19126;47.472;7.850;2023-01-25T10:15:16;97708.94;;;0.79;98.20
32761;BME280;19126;47.472;7.850;2023-01-25T10:17:55;97706.53;;;0.76;100.00
32761;BME280;19126;47.472;7.850;2023-01-25T10:20:30;97696.13;;;0.78;99.81
32761;BME280;19126;47.472;7.850;2023-01-25T10:23:59;97703.53;;;0.84;100.00
32761;BME280;19126;47.472;7.850;2023-01-25T10:26:51;97706.59;;;0.91;100.00
32761;BME280;19126;47.472;7.850;2023-01-25T10:29:22;97710.59;;;0.96;100.00
32761;BME280;19126;47.472;7.850;2023-01-25T10:32:00;97696.34;;;0.89;100.00
32761;BME280;19126;47.472;7.850;2023-01-25T10:34:33;97698.66;;;0.94;100.00
32761;BME280;19126;47.472;7.850;2023-01-25T10:37:11;97692.38;;;0.98;100.00
32761;BME280;19126;47.472;7.850;2023-01-25T10:39:55;97677.16;;;0.93;100.00
32761;BME280;19126;47.472;7.850;2023-01-25T10:42:52;97685.31;;;1.01;100.00
32761;BME280;19126;47.472;7.850;2023-01-25T10:45:26;97686.75;;;0.91;100.00
32761;BME280;19126;47.472;7.850;2023-01-25T10:48:14;97699.06;;;1.02;100.00
32761;BME280;19126;47.472;7.850;2023-01-25T10:50:49;97693.75;;;0.89;100.00
32761;BME280;19126;47.472;7.850;2023-01-25T10:53:29;97683.13;;;0.94;100.00
32761;BME280;19126;47.472;7.850;2023-01-25T10:56:25;97688.75;;;0.86;100.00
32761;BME280;19126;47.472;7.850;2023-01-25T10:59:13;97687.50;;;0.93;100.00
32761;BME280;19126;47.472;7.850;2023-01-25T11:01:53;97673.53;;;0.96;100.00
32761;BME280;19126;47.472;7.850;2023-01-25T11:07:49;97656.34;;;0.95;100.00
32761;BME280;19126;47.472;7.850;2023-01-25T11:10:28;97662.94;;;1.00;100.00
32761;BME280;19126;47.472;7.850;2023-01-25T11:16:09;97663.84;;;0.99;100.00
32761;BME280;19126;47.472;7.850;2023-01-25T11:18:49;97661.16;;;1.01;100.00
32761;BME280;19126;47.472;7.850;2023-01-25T11:21:34;97653.75;;;0.95;100.00
32761;BME280;19126;47.472;7.850;2023-01-25T11:25:17;97646.34;;;0.88;100.00
32761;BME280;19126;47.472;7.850;2023-01-25T16:15:42;97385.66;;;0.50;100.00
32761;BME280;19126;47.472;7.850;2023-01-25T16:18:13;97393.91;;;0.57;100.00
32761;BME280;19126;47.472;7.850;2023-01-25T16:20:41;97394.63;;;0.59;100.00
32761;BME280;19126;47.472;7.850;2023-01-25T16:23:11;97403.22;;;0.60;100.00
32761;BME280;19126;47.472;7.850;2023-01-25T16:25:41;97400.72;;;0.58;100.00
32761;BME280;19126;47.472;7.850;2023-01-25T16:28:10;97406.16;;;0.53;100.00
32761;BME280;19126;47.472;7.850;2023-01-25T16:30:43;97393.22;;;0.53;100.00
32761;BME280;19126;47.472;7.850;2023-01-25T16:33:11;97401.28;;;0.49;100.00
32761;BME280;19126;47.472;7.850;2023-01-25T16:35:39;97394.16;;;0.52;100.00
32761;BME280;19126;47.472;7.850;2023-01-25T16:38:31;97399.31;;;0.52;100.00
32761;BME280;19126;47.472;7.850;2023-01-25T16:41:03;97381.88;;;0.41;100.00
32761;BME280;19126;47.472;7.850;2023-01-25T16:43:35;97381.53;;;0.48;100.00
32761;BME280;19126;47.472;7.850;2023-01-25T16:46:07;97387.69;;;0.45;100.00
32761;BME280;19126;47.472;7.850;2023-01-25T16:48:39;97367.50;;;0.37;100.00
32761;BME280;19126;47.472;7.850;2023-01-25T16:51:17;97374.94;;;0.42;100.00
32761;BME280;19126;47.472;7.850;2023-01-25T16:54:02;97369.88;;;0.40;100.00
32761;BME280;19126;47.472;7.850;2023-01-25T16:56:37;97372.38;;;0.42;100.00
32761;BME280;19126;47.472;7.850;2023-01-25T16:59:06;97373.09;;;0.44;100.00
32761;BME280;19126;47.472;7.850;2023-01-25T17:01:40;97369.88;;;0.40;100.00
32761;BME280;19126;47.472;7.850;2023-01-25T17:04:08;97369.03;;;0.40;100.00
32761;BME280;19126;47.472;7.850;2023-01-25T17:06:40;97365.47;;;0.42;100.00
32761;BME280;19126;47.472;7.850;2023-01-25T17:09:12;97362.41;;;0.36;100.00
32761;BME280;19126;47.472;7.850;2023-01-25T17:11:40;97354.00;;;0.32;100.00
32761;BME280;19126;47.472;7.850;2023-01-25T17:14:09;97356.31;;;0.37;100.00
32761;BME280;19126;47.472;7.850;2023-01-25T17:20:10;97344.59;;;0.31;100.00
32761;BME280;19126;47.472;7.850;2023-01-25T17:22:49;97331.19;;;0.24;100.00
32761;BME280;19126;47.472;7.850;2023-01-25T17:28:21;97330.38;;;0.24;100.00
32761;BME280;19126;47.472;7.850;2023-01-25T17:31:24;97328.78;;;0.21;100.00
32761;BME280;19126;47.472;7.850;2023-01-25T17:33:55;97329.16;;;0.29;100.00
32761;BME280;19126;47.472;7.850;2023-01-25T17:36:31;97313.84;;;0.26;100.00
32761;BME280;19126;47.472;7.850;2023-01-25T17:39:01;97307.94;;;0.24;100.00
32761;BME280;19126;47.472;7.850;2023-01-25T17:41:31;97320.41;;;0.32;100.00
32761;BME280;19126;47.472;7.850;2023-01-25T17:43:59;97321.16;;;0.34;100.00
32761;BME280;19126;47.472;7.850;2023-01-25T17:46:33;97317.84;;;0.32;100.00
32761;BME280;19126;47.472;7.850;2023-01-25T18:05:56;97290.50;;;0.28;100.00
32761;BME280;19126;47.472;7.850;2023-01-25T18:09:14;97292.81;;;0.18;100.00
32761;BME280;19126;47.472;7.850;2023-01-25T18:16:07;97285.16;;;0.17;100.00
32761;BME280;19126;47.472;7.850;2023-01-25T18:22:17;97293.47;;;0.22;100.00
32761;BME280;19126;47.472;7.850;2023-01-25T18:24:50;97285.91;;;0.19;100.00
32761;BME280;19126;47.472;7.850;2023-01-25T18:29:29;97282.03;;;0.11;100.00
32761;BME280;19126;47.472;7.850;2023-01-25T19:13:17;97257.31;;;0.07;100.00
32761;BME280;19126;47.472;7.850;2023-01-25T19:16:01;97266.41;;;0.13;100.00
32761;BME280;19126;47.472;7.850;2023-01-25T19:18:39;97264.31;;;0.05;100.00
32761;BME280;19126;47.472;7.850;2023-01-25T19:21:11;97263.56;;;0.03;100.00
32761;BME280;19126;47.472;7.850;2023-01-25T19:23:43;97252.66;;;-0.02;100.00
32761;BME280;19126;47.472;7.850;2023-01-25T19:26:25;97249.53;;;-0.07;100.00
32761;BME280;19126;47.472;7.850;2023-01-25T19:32:41;97246.31;;;-0.11;100.00
32761;BME280;19126;47.472;7.850;2023-01-25T19:35:35;97254.31;;;-0.01;100.00
32761;BME280;19126;47.472;7.850;2023-01-25T19:38:31;97253.59;;;-0.03;100.00
32761;BME280;19126;47.472;7.850;2023-01-25T19:56:53;97226.47;;;-0.10;100.00
32761;BME280;19126;47.472;7.850;2023-01-25T20:42:51;97193.75;;;-0.24;100.00
32761;BME280;19126;47.472;7.850;2023-01-25T20:45:40;97202.84;;;-0.19;100.00
32761;BME280;19126;47.472;7.850;2023-01-25T20:48:25;97206.91;;;-0.15;100.00
32761;BME280;19126;47.472;7.850;2023-01-25T20:51:21;97205.44;;;-0.19;100.00
32761;BME280;19126;47.472;7.850;2023-01-25T20:54:12;97194.56;;;-0.24;100.00
32761;BME280;19126;47.472;7.850;2023-01-25T20:56:52;97192.28;;;-0.28;100.00
32761;BME280;19126;47.472;7.850;2023-01-25T20:59:37;97192.16;;;-0.27;100.00
32761;BME280;19126;47.472;7.850;2023-01-25T21:02:48;97188.47;;;-0.23;100.00
32761;BME280;19126;47.472;7.850;2023-01-25T21:05:51;97176.22;;;-0.34;100.00
32761;BME280;19126;47.472;7.850;2023-01-25T21:08:57;97175.38;;;-0.34;100.00
32761;BME280;19126;47.472;7.850;2023-01-25T21:11:34;97184.34;;;-0.25;100.00
32761;BME280;19126;47.472;7.850;2023-01-25T21:14:43;97160.81;;;-0.35;100.00
32761;BME280;19126;47.472;7.850;2023-01-25T21:48:08;97169.66;;;-0.25;100.00
32761;BME280;19126;47.472;7.850;2023-01-25T21:51:45;97164.69;;;-0.28;100.00
32761;BME280;19126;47.472;7.850;2023-01-25T21:54:53;97160.56;;;-0.31;100.00
32761;BME280;19126;47.472;7.850;2023-01-25T21:58:34;97156.50;;;-0.35;100.00
32761;BME280;19126;47.472;7.850;2023-01-25T22:01:29;97158.41;;;-0.38;100.00
32761;BME280;19126;47.472;7.850;2023-01-25T22:10:45;97141.09;;;-0.51;100.00
32761;BME280;19126;47.472;7.850;2023-01-25T22:13:34;97129.41;;;-0.56;100.00
32761;BME280;19126;47.472;7.850;2023-01-25T22:19:54;97134.44;;;-0.55;100.00
32761;BME280;19126;47.472;7.850;2023-01-25T22:22:47;97147.34;;;-0.40;100.00
32761;BME280;19126;47.472;7.850;2023-01-25T22:25:30;97126.16;;;-0.46;100.00
32761;BME280;19126;47.472;7.850;2023-01-25T22:28:09;97124.41;;;-0.45;100.00
32761;BME280;19126;47.472;7.850;2023-01-25T22:30:57;97133.63;;;-0.41;100.00
32761;BME280;19126;47.472;7.850;2023-01-25T22:33:36;97130.41;;;-0.45;100.00
32761;BME280;19126;47.472;7.850;2023-01-25T22:36:20;97129.22;;;-0.39;100.00
32761;BME280;19126;47.472;7.850;2023-01-25T22:39:11;97110.13;;;-0.51;100.00
32761;BME280;19126;47.472;7.850;2023-01-25T22:41:45;97116.88;;;-0.48;100.00
32761;BME280;19126;47.472;7.850;2023-01-25T22:44:17;97118.34;;;-0.44;100.00
32761;BME280;19126;47.472;7.850;2023-01-25T22:46:44;97127.75;;;-0.43;100.00
32761;BME280;19126;47.472;7.850;2023-01-25T22:49:20;97112.81;;;-0.52;100.00
32761;BME280;19126;47.472;7.850;2023-01-25T22:51:48;97116.50;;;-0.42;100.00
32761;BME280;19126;47.472;7.850;2023-01-25T22:54:20;97116.75;;;-0.47;100.00
32761;BME280;19126;47.472;7.850;2023-01-25T22:56:50;97106.00;;;-0.53;100.00
32761;BME280;19126;47.472;7.850;2023-01-25T22:59:37;97117.69;;;-0.48;100.00
32761;BME280;19126;47.472;7.850;2023-01-25T23:09:12;97083.94;;;-0.59;100.00
32761;BME280;19126;47.472;7.850;2023-01-25T23:11:48;97096.94;;;-0.46;100.00
32761;BME280;19126;47.472;7.850;2023-01-25T23:14:19;97088.47;;;-0.48;100.00
32761;BME280;19126;47.472;7.850;2023-01-25T23:17:16;97088.47;;;-0.48;100.00
32761;BME280;19126;47.472;7.850;2023-01-25T23:20:10;97071.06;;;-0.59;100.00
32761;BME280;19126;47.472;7.850;2023-01-25T23:23:00;97069.41;;;-0.60;100.00
32761;BME280;19126;47.472;7.850;2023-01-25T23:25:32;97073.19;;;-0.51;100.00
32761;BME280;19126;47.472;7.850;2023-01-25T23:28:06;97067.34;;;-0.55;100.00
32761;BME280;19126;47.472;7.850;2023-01-25T23:30:39;97069.31;;;-0.58;100.00
32761;BME280;19126;47.472;7.850;2023-01-25T23:33:33;97059.19;;;-0.62;100.00
32761;BME280;19126;47.472;7.850;2023-01-25T23:36:19;97064.69;;;-0.53;100.00
32761;BME280;19126;47.472;7.850;2023-01-25T23:39:00;97058.44;;;-0.64;100.00
32761;BME280;19126;47.472;7.850;2023-01-25T23:41:35;97067.47;;;-0.56;100.00
32761;BME280;19126;47.472;7.850;2023-01-25T23:44:21;97056.22;;;-0.55;100.00
32761;BME280;19126;47.472;7.850;2023-01-25T23:50:39;97050.59;;;-0.62;100.00
32761;BME280;19126;47.472;7.850;2023-01-25T23:53:10;97056.50;;;-0.60;100.00
32761;BME280;19126;47.472;7.850;2023-01-25T23:56:12;97055.56;;;-0.59;100.00
32761;BME280;19126;47.472;7.850;2023-01-25T23:59:12;97032.91;;;-0.68;100.00
